Weather Data

Pearl Creek Farm: 8878 N Farm Road 75, Walnut Grove MO 65770

<== Previous Day (Tuesday 15 Mar 2011) | Next Day (Thursday 17 Mar 2011) ==>

Summary Precipitation Data For Wednesday 16 March 2011

ElementValueUnits
Precipitation0"
Notes(none)
SourcePearl Creek Farm

Summary Temperature Data For Wednesday 16 March 2011

ElementValueUnits
High Temperature69 oF
Low Temperature33 oF
Average Temperature52 oF
High Humidity89 %
Low Humidity42 %
Average Humidity65 %
SourceSpringfield-Branson National Airport (SGF)

Detail Temperature Data For Wednesday 16 March 2011

Date / TimeTemp (F)RH (%)Dew Pt (F)Report Date / TimeSource
2011-03-16 04:52:00 38 86 34.0 2017-12-29 17:00:26.17417 Springfield-Branson National Airport (SGF)
2011-03-16 05:52:00 38 86 34.0 2017-12-29 17:00:26.17417 Springfield-Branson National Airport (SGF)
2011-03-16 06:52:00 40 86 36.0 2017-12-29 17:00:26.17417 Springfield-Branson National Airport (SGF)
2011-03-16 07:52:00 43 82 38.0 2017-12-29 17:00:26.17417 Springfield-Branson National Airport (SGF)
2011-03-16 08:52:00 48 74 40.0 2017-12-29 17:00:26.17417 Springfield-Branson National Airport (SGF)
2011-03-16 09:52:00 55 59 41.0 2017-12-29 17:00:26.17417 Springfield-Branson National Airport (SGF)
2011-03-16 10:52:00 58 53 41.0 2017-12-29 17:00:26.17417 Springfield-Branson National Airport (SGF)
2011-03-16 11:52:00 61 46 40.0 2017-12-29 17:00:26.17417 Springfield-Branson National Airport (SGF)
2011-03-16 12:52:00 61 44 39.0 2017-12-29 17:00:26.17417 Springfield-Branson National Airport (SGF)
2011-03-16 14:52:00 67 42 43.0 2017-12-29 17:00:26.17417 Springfield-Branson National Airport (SGF)
2011-03-16 16:52:00 69 42 45.0 2017-12-29 17:00:26.17417 Springfield-Branson National Airport (SGF)
2011-03-16 00:52:00 34 85 30.0 2017-12-29 17:00:26.17417 Springfield-Branson National Airport (SGF)
2011-03-16 01:52:00 33 89 30.0 2017-12-29 17:00:26.17417 Springfield-Branson National Airport (SGF)
2011-03-16 02:52:00 34 89 31.0 2017-12-29 17:00:26.17417 Springfield-Branson National Airport (SGF)
2011-03-16 03:52:00 33 89 30.0 2017-12-29 17:00:26.17417 Springfield-Branson National Airport (SGF)
2011-03-16 13:52:00 66 42 42.0 2017-12-29 17:00:26.17417 Springfield-Branson National Airport (SGF)
2011-03-16 15:52:00 68 44 45.0 2017-12-29 17:00:26.17417 Springfield-Branson National Airport (SGF)
2011-03-16 17:52:00 64 52 46.0 2017-12-29 17:00:26.17417 Springfield-Branson National Airport (SGF)
2011-03-16 18:52:00 61 58 46.0 2017-12-29 17:00:26.17417 Springfield-Branson National Airport (SGF)
2011-03-16 19:52:00 59 62 46.0 2017-12-29 17:00:26.17417 Springfield-Branson National Airport (SGF)
2011-03-16 20:52:00 59 60 45.0 2017-12-29 17:00:26.17417 Springfield-Branson National Airport (SGF)
2011-03-16 21:52:00 58 62 45.0 2017-12-29 17:00:26.17417 Springfield-Branson National Airport (SGF)
2011-03-16 22:52:00 57 64 45.0 2017-12-29 17:00:26.17417 Springfield-Branson National Airport (SGF)
2011-03-16 23:52:00 55 69 45.0 2017-12-29 17:00:26.17417 Springfield-Branson National Airport (SGF)

A total of 24 rows are displayed.